Chenoa, IL (61726)

3:48 AM CST on February 06, 2016 (GMT -0600)
APRSWXNET | | Change Station
CLOSE
Current Station
Personal Weather Station
Location: Pontiac, IL
Elevation: 646 ft
Nearby Weather Stations

Elev 646 ft 40.88 °N, 88.63 °W | Updated 20 minutes ago

Partly Cloudy
Partly Cloudy
24 °F
Feels Like 24 °F
N
0
Wind Variable Wind from SW
Gusts 1.0 mph

Today
High -- | Low -- °F
--% Chance of Precip.
Yesterday
High -- | Low -- °F
Precip. -- in
Pressure 30.31 in
Visibility 7.0 miles
Clouds Scattered Clouds 7500 ft
Windchill 24 °F
Dew Point 22 °F
Humidity 90%
Rainfall in
Snow Depth Not available.
7:00 AM 5:18 PM
Waning Crescent, 6% visible
METAR KPNT 060935Z AUTO 17003KT 7SM SCT075 M04/M05 A3031 RMK AO2 T10431050
Pressure 30.31 in
Visibility 7.0 miles
Clouds Scattered Clouds 7500 ft
Windchill 24 °F
Dew Point 22 °F
Humidity 90%
Rainfall in
Snow Depth Not available.
7:00 AM 5:18 PM
Waning Crescent, 6% visible
METAR KPNT 060935Z AUTO 17003KT 7SM SCT075 M04/M05 A3031 RMK AO2 T10431050

10-Day Weather Forecast

Almanac

Astronomy

Feb. 06, 2016 Rise Set
Actual Time
Civil Twilight
Nautical Twilight
Astronomical Twilight
Moon
Length of Visible Light
Length of Day
Tomorrow will be .
, % of the Moon is Illuminated

Today's Extremes

State Highs State Lows

Community

WunderPhotos

Upload Photos

1,890,933 photos uploaded!

WunderBlog® & News

Nearby

Air Quality

  Air Quality AQ Index Pollutant
Not available.

Snow Depth

Station Depth Elevation

Earthquake Activity

City Distance Mag. Time & Date
Minimum magnitude displayed is 2.5.

Coastal Water Temperatures

Place Temperature

Stations

Nearby Weather Stations

Station Location Temp. Windchill Dew Point Humidity Wind Precip. Elev Updated Type
                   

Watches & Warnings

There are currently no watches in effect.